Terminal Aerodrome Forecast
Issued by NWS

Home | Current Version | Previous Version | Text Only | Print | Product List | Glossary On
Versions: 1 2 3 4 5 6 7 8 9 10 11 12 13 14 15 16 17 18 19 20
030
FTUS43 KDLH 260539
TAFBRD
TAF
KBRD 260539Z 2606/2706 27005KT P6SM FEW110 BKN250
     FM260800 29004KT 4SM BR SCT060
     FM261300 34005KT P6SM SCT120
     FM261800 32010KT P6SM BKN050
     FM270200 34003KT P6SM SCT050=

USA.gov is the U.S. government's official web portal to all federal, state and local government web resources and services.